South Byron, Wisconsin
Current Conditions -  °F | °C
As of 5:53 PM on Wednesday 28 Jan 2015 (Local Time) from KFLD Reporting Station
Clear Clear  
Wind Chill: 20°   Ceiling: Unl
Heat Index: 30°   Visibility: 10mi
Dew Point: 20°   Wind: 14mph
Humidity: 66%   Direction: 140°SE
Pressure: 29.92"   Gusts: NA
Location:  43.6092°N, 88.5191°W
Report Text: KFLD 282353Z AUTO 14012KT 10SM CLR M01/M07 A2992 RMK AO2 SLP143 T10111067 10006 21011 57036
Loading
Personal Weather Stations






























Interactive Weather Map New forecast layout! Learn more

10-Day Weather Forecast

Advertisements
Track Severe Weather on mobile